Nearby METAR Reports

 

KRUE - Russellville, Arkansas, USA
Distance from station: ESE 28mi, 45km
Updated: Tue, 22-May-2018 10:53am CDT
Clear
Clear
 Wind from SSE
Wind: SSE 6 mph , 9 km/h
Temperature: 81°F , 27°C
Heat Index: 85°F , 29°C
Dew Point: 72°F , 22°C
Humidity: 74%
Barometer: 30.05 inHg , 1017.6 hPa
Clouds: Clear
Visibility: 10 miles , 16 km
2018/05/22 15:53 KRUE 221553Z AUTO 15005KT 10SM CLR 27/22 A3005 RMK AO2 SLP168 T02720217
KFSM - Fort Smith, Arkansas, USA
Distance from station: W 48mi, 77km
Updated: Tue, 22-May-2018 10:53am CDT
Clear
Clear
 Wind from N
Wind: N 3 mph , 6 km/h
Temperature: 82°F , 28°C
Heat Index: 86°F , 30°C
Dew Point: 70°F , 21°C
Humidity: 66%
Barometer: 30.05 inHg , 1017.6 hPa
Clouds: Clear
Visibility: 10 miles , 16 km
2018/05/22 15:53 KFSM 221553Z 36003KT 10SM CLR 28/21 A3005 RMK AO2 SLP168 T02830211
 
KFYV - Fayetteville, Arkansas, USA
Distance from station: NW 52mi, 84km
Updated: Tue, 22-May-2018 10:53am CDT
Clear
Clear
 Wind from varies
Wind: varies 3 mph , 6 km/h
Temperature: 81°F , 27°C
Heat Index: 83°F , 28°C
Dew Point: 66°F , 19°C
Humidity: 62%
Barometer: 30.08 inHg , 1018.6 hPa
Clouds: Clear
Visibility: 10 miles , 16 km
2018/05/22 15:53 KFYV 221553Z VRB03KT 10SM CLR 27/19 A3008 RMK AO2 SLP171 T02670189
KASG - Springdale Muni, Arkansas, USA
Distance from station: NW 59mi, 95km
Updated: Wed, 31-Dec-1969 6:00pm CST
NOT Current
unable to load KASG data RC=404 Not Found
unable to load KASG data RC=404 Not Found
 
 
KHRO - Harrison, Arkansas, USA
Distance from station: NNE 60mi, 96km
Updated: Tue, 22-May-2018 10:53am CDT
Overcast
Overcast
 Wind from calm
Wind: Calm
Temperature: 77°F , 25°C
Dew Point: 66°F , 19°C
Humidity: 69%
Barometer: 30.09 inHg , 1019 hPa
Clouds: Overcast
Visibility: 10 miles , 16 km
Cloud details: Mostly cloudy 2500 ft
Overcast 4100 ft
2018/05/22 15:53 KHRO 221553Z AUTO 00000KT 10SM BKN025 OVC041 25/19 A3009 RMK AO2 SLP176 T02500194
KCCA - Clinton Muni, Arkansas, USA
Distance from station: E 61mi, 99km
Updated: Tue, 22-May-2018 11:15am CDT
Clear
Clear
 Wind from calm
Wind: Calm
Temperature: 82°F , 28°C
Heat Index: 86°F , 30°C
Dew Point: 70°F , 21°C
Humidity: 66%
Barometer: 30.06 inHg , 1017.9 hPa
Clouds: Clear
Visibility: 10 miles , 16 km
2018/05/22 16:15 KCCA 221615Z AUTO 00000KT 10SM CLR 28/21 A3006 RMK AO2